Terminal Aerodrome Forecast
Issued by NWS

Home | Current Version | Previous Version | Text Only | Print | Product List | Glossary On
Versions: 1 2 3 4 5 6 7 8 9 10 11 12 13 14 15 16 17 18 19 20 21 22 23 24 25 26 27
000
FTUS43 KBIS 210900 AAA
TAFMOT
TAF AMD
KMOT 210946Z 2110/2206 21006KT P6SM SKC
      TEMPO 2110/2114 3SM BR FEW010
     FM211600 14008KT P6SM SCT010 BKN100
     FM220200 11008KT P6SM VCSH BKN030 OVC080=

USA.gov is the U.S. government's official web portal to all federal, state and local government web resources and services.